createdAt,value
2022-08-22T00:00:13.695Z,40.42
2022-08-22T00:02:48.063Z,33.91
2022-08-22T00:02:49.711Z,35.20
2022-08-22T00:02:58.943Z,38.56
2022-08-22T00:02:59.072Z,37.95
2022-08-22T00:03:03.074Z,34.56
2022-08-22T00:03:12.378Z,34.52
2022-08-22T00:05:53.223Z,40.38
2022-08-22T00:08:29.350Z,40.04
2022-08-22T00:11:04.487Z,37.90
2022-08-22T00:13:42.191Z,39.06
2022-08-22T00:16:34.530Z,38.35
2022-08-22T00:19:13.567Z,39.96
2022-08-22T00:21:46.753Z,40.04
2022-08-22T00:24:22.391Z,39.31
2022-08-22T00:26:55.633Z,40.09
2022-08-22T00:29:28.732Z,39.09
2022-08-22T00:32:05.829Z,38.41
2022-08-22T00:34:40.071Z,39.92
2022-08-22T00:37:11.110Z,40.18
2022-08-22T00:39:44.781Z,39.00
2022-08-22T00:42:38.528Z,40.24
2022-08-22T00:45:26.843Z,39.01
2022-08-22T00:48:08.351Z,40.48
2022-08-22T00:50:57.900Z,40.44
2022-08-22T00:53:50.940Z,39.72
2022-08-22T00:56:37.596Z,39.44
2022-08-22T00:59:23.169Z,41.46
2022-08-22T01:02:05.165Z,39.44
2022-08-22T01:04:41.793Z,40.04
2022-08-22T01:07:23.844Z,39.76
2022-08-22T01:10:14.696Z,38.84
2022-08-22T01:12:59.715Z,40.68
2022-08-22T01:15:31.702Z,41.31
2022-08-22T01:18:30.063Z,39.48
2022-08-22T01:21:33.933Z,39.99
2022-08-22T01:25:04.453Z,41.09
2022-08-22T01:28:12.137Z,40.75
2022-08-22T01:31:13.806Z,40.65
2022-08-22T01:34:19.149Z,41.45
2022-08-22T01:37:13.759Z,42.77
2022-08-22T01:40:20.728Z,41.17
2022-08-22T01:43:06.263Z,42.44
2022-08-22T01:45:51.264Z,43.22
2022-08-22T01:48:23.939Z,42.93
2022-08-22T01:50:55.284Z,42.68
2022-08-22T01:53:28.209Z,41.96
2022-08-22T01:56:06.122Z,42.78
2022-08-22T01:58:38.286Z,41.68
2022-08-22T02:01:21.463Z,41.19
2022-08-22T02:04:01.689Z,42.30
2022-08-22T02:06:41.707Z,42.00
2022-08-22T02:09:24.863Z,42.42
2022-08-22T02:11:57.156Z,41.63
2022-08-22T02:14:53.928Z,41.36
2022-08-22T02:17:27.790Z,41.95
2022-08-22T02:20:02.991Z,42.84
2022-08-22T02:22:44.628Z,42.58
2022-08-22T02:25:21.578Z,43.55
2022-08-22T02:27:57.581Z,42.95
2022-08-22T02:30:31.501Z,42.77
2022-08-22T02:33:06.831Z,43.34
2022-08-22T02:35:41.360Z,43.14
2022-08-22T02:38:24.574Z,42.70
2022-08-22T02:41:05.484Z,42.67
2022-08-22T02:43:44.361Z,43.03
2022-08-22T02:46:23.545Z,42.86
2022-08-22T02:49:03.621Z,43.17
2022-08-22T02:51:40.713Z,43.07
2022-08-22T02:54:16.177Z,42.82
2022-08-22T02:56:53.794Z,42.75
2022-08-22T02:59:34.438Z,42.65
2022-08-22T03:02:33.746Z,43.30
2022-08-22T03:05:03.403Z,43.93
2022-08-22T03:07:39.365Z,42.96
2022-08-22T03:10:24.646Z,43.60
2022-08-22T03:13:03.929Z,43.23
2022-08-22T03:15:37.975Z,43.10
2022-08-22T03:18:18.027Z,43.96
2022-08-22T03:20:51.634Z,43.36
2022-08-22T03:23:29.584Z,42.89
2022-08-22T03:26:07.781Z,44.58
2022-08-22T03:28:59.471Z,44.20
2022-08-22T03:31:30.658Z,44.34
2022-08-22T03:34:22.318Z,43.76
2022-08-22T03:37:04.004Z,43.44
2022-08-22T03:39:55.022Z,43.90
2022-08-22T03:42:52.078Z,43.66
2022-08-22T03:45:46.048Z,43.84
2022-08-22T03:48:42.855Z,44.10
2022-08-22T03:51:24.942Z,43.95
2022-08-22T03:54:18.462Z,43.95
2022-08-22T03:57:21.199Z,44.40
2022-08-22T04:00:20.001Z,44.42
2022-08-22T04:03:24.097Z,44.20
2022-08-22T04:06:39.835Z,44.94
2022-08-22T04:09:40.134Z,44.34
2022-08-22T04:12:46.258Z,44.47
2022-08-22T04:15:32.187Z,44.22
2022-08-22T04:18:17.742Z,44.38
2022-08-22T04:21:10.771Z,44.02
2022-08-22T04:24:14.779Z,44.56
2022-08-22T04:26:49.162Z,45.38
2022-08-22T04:29:20.909Z,45.24
2022-08-22T04:31:57.378Z,45.75
2022-08-22T04:34:33.468Z,45.01
2022-08-22T04:37:11.990Z,46.07
2022-08-22T04:39:49.386Z,45.25
2022-08-22T04:42:32.540Z,45.25
2022-08-22T04:45:07.323Z,45.10
2022-08-22T04:47:40.485Z,45.49
2022-08-22T04:50:17.117Z,45.43
2022-08-22T04:52:57.771Z,45.18
2022-08-22T04:55:34.571Z,45.49
2022-08-22T04:58:13.278Z,45.48
2022-08-22T05:00:46.001Z,45.50
2022-08-22T05:03:18.170Z,44.57
2022-08-22T05:05:50.669Z,45.06
2022-08-22T05:08:23.901Z,45.49
2022-08-22T05:10:53.256Z,45.57
2022-08-22T05:13:26.212Z,45.35
2022-08-22T05:15:59.174Z,45.05
2022-08-22T05:18:30.287Z,45.78
2022-08-22T05:21:03.834Z,45.50
2022-08-22T05:23:41.396Z,45.11
2022-08-22T05:26:11.756Z,45.29
2022-08-22T05:28:43.486Z,44.04
2022-08-22T05:31:15.332Z,44.90
2022-08-22T05:33:47.288Z,44.14
2022-08-22T05:36:22.710Z,45.57
2022-08-22T05:38:55.865Z,45.01
2022-08-22T05:41:27.062Z,43.87
2022-08-22T05:43:56.015Z,44.14
2022-08-22T05:46:29.747Z,43.70
2022-08-22T05:49:00.397Z,44.25
2022-08-22T05:51:38.160Z,43.69
2022-08-22T05:54:15.367Z,44.90
2022-08-22T05:56:48.312Z,44.89
2022-08-22T05:59:26.107Z,44.54
2022-08-22T06:02:03.797Z,44.13
2022-08-22T06:04:40.304Z,44.20
2022-08-22T06:07:15.916Z,42.60
2022-08-22T06:10:15.479Z,42.81
2022-08-22T06:12:54.995Z,42.57
2022-08-22T06:15:44.287Z,43.71
2022-08-22T06:18:21.946Z,43.10
2022-08-22T06:20:55.091Z,42.89
2022-08-22T06:23:29.218Z,43.26
2022-08-22T06:26:00.707Z,42.71
2022-08-22T06:28:35.200Z,42.76
2022-08-22T06:31:05.013Z,43.11
2022-08-22T06:33:40.853Z,41.54
2022-08-22T06:36:31.842Z,41.11
2022-08-22T06:39:18.723Z,41.01
2022-08-22T06:41:52.144Z,41.15
2022-08-22T06:44:24.666Z,40.56
2022-08-22T06:46:56.696Z,40.89
2022-08-22T06:49:26.984Z,40.09
2022-08-22T06:52:00.443Z,39.27
2022-08-22T06:54:34.589Z,39.47
2022-08-22T06:57:05.179Z,38.63
2022-08-22T06:59:37.380Z,38.39
2022-08-22T07:02:18.620Z,38.87
2022-08-22T07:04:49.910Z,37.99
2022-08-22T07:07:21.588Z,37.62
2022-08-22T07:09:55.654Z,37.35
2022-08-22T07:12:29.257Z,36.74
2022-08-22T07:15:02.955Z,33.19
2022-08-22T07:17:41.748Z,29.69
2022-08-22T07:20:26.113Z,26.09
2022-08-22T07:22:57.369Z,24.18
2022-08-22T07:25:28.017Z,21.34
2022-08-22T07:28:07.175Z,20.33
2022-08-22T07:30:46.466Z,18.25
2022-08-22T07:33:27.277Z,16.88
2022-08-22T07:36:01.654Z,14.95
2022-08-22T07:38:42.974Z,14.30
2022-08-22T07:41:20.093Z,13.64
2022-08-22T07:43:51.833Z,12.80
2022-08-22T07:46:30.344Z,12.33
2022-08-22T07:49:09.515Z,100.00
2022-08-22T07:51:44.595Z,10.91
2022-08-22T07:54:15.244Z,10.43
2022-08-22T07:56:53.099Z,10.18
2022-08-22T07:59:22.652Z,9.51
2022-08-22T08:01:54.437Z,8.62
2022-08-22T08:04:27.314Z,8.56
2022-08-22T08:06:58.907Z,7.23
2022-08-22T08:09:32.984Z,8.03
2022-08-22T08:12:05.988Z,7.25
2022-08-22T08:14:37.863Z,7.30
2022-08-22T08:17:09.947Z,6.46
2022-08-22T08:19:42.164Z,6.85
2022-08-22T08:22:16.619Z,6.90
2022-08-22T08:24:45.775Z,6.21
2022-08-22T08:27:37.617Z,6.17
2022-08-22T08:30:15.229Z,7.15
2022-08-22T08:32:47.587Z,6.90
2022-08-22T08:35:23.652Z,6.43
2022-08-22T08:37:57.866Z,6.35
2022-08-22T08:40:51.796Z,6.41
2022-08-22T08:43:30.563Z,7.09
2022-08-22T08:46:17.914Z,5.58
2022-08-22T08:49:07.409Z,5.56
2022-08-22T08:52:08.107Z,5.34
2022-08-22T08:54:56.015Z,5.47
2022-08-22T08:57:40.163Z,5.67
2022-08-22T09:00:14.651Z,5.96
2022-08-22T09:02:52.735Z,5.68
2022-08-22T09:05:52.109Z,5.97
2022-08-22T09:09:17.193Z,5.02
2022-08-22T09:12:23.714Z,5.34
2022-08-22T09:15:17.397Z,4.84
2022-08-22T09:18:19.770Z,4.32
2022-08-22T09:21:09.005Z,4.45
2022-08-22T09:24:08.962Z,4.98
2022-08-22T09:26:47.094Z,4.46
2022-08-22T09:29:35.454Z,4.69
2022-08-22T09:32:24.242Z,4.91
2022-08-22T09:35:02.886Z,4.30
2022-08-22T09:37:42.708Z,4.59
2022-08-22T09:40:23.384Z,4.38
2022-08-22T09:43:01.924Z,5.07
2022-08-22T09:45:45.512Z,100.00
2022-08-22T09:48:36.861Z,100.00
2022-08-22T09:51:32.605Z,100.00
2022-08-22T09:54:31.103Z,100.00
2022-08-22T09:57:19.290Z,100.00
2022-08-22T10:00:17.165Z,100.00
2022-08-22T10:03:02.614Z,100.00
2022-08-22T10:05:44.220Z,100.00
2022-08-22T10:08:20.218Z,100.00
2022-08-22T10:11:09.329Z,100.00
2022-08-22T10:13:57.253Z,8.67
2022-08-22T10:16:50.456Z,7.44
2022-08-22T10:19:27.785Z,8.83
2022-08-22T10:22:20.612Z,8.39
2022-08-22T10:24:59.997Z,9.27
2022-08-22T10:27:43.710Z,9.22
2022-08-22T10:30:18.388Z,9.09
2022-08-22T10:32:52.846Z,9.77
2022-08-22T10:35:27.812Z,12.46
2022-08-22T10:38:00.150Z,15.01
2022-08-22T10:40:36.112Z,15.30
2022-08-22T10:43:12.839Z,16.82
2022-08-22T10:45:43.672Z,16.75
2022-08-22T10:48:24.922Z,16.80
2022-08-22T10:51:00.703Z,19.28
2022-08-22T10:53:48.563Z,18.59
2022-08-22T10:56:29.690Z,17.09
2022-08-22T10:59:09.470Z,15.15
2022-08-22T11:01:48.828Z,14.78
2022-08-22T11:04:32.065Z,13.32
2022-08-22T11:07:15.835Z,12.56
2022-08-22T11:09:53.010Z,13.62
2022-08-22T11:12:34.855Z,14.30
2022-08-22T11:15:12.490Z,15.55
2022-08-22T11:18:12.883Z,15.92
2022-08-22T11:20:55.008Z,14.44
2022-08-22T11:23:44.861Z,15.22
2022-08-22T11:26:29.324Z,15.99
2022-08-22T11:29:14.430Z,16.43
2022-08-22T11:31:51.687Z,17.68
2022-08-22T11:34:35.826Z,18.76
2022-08-22T11:37:11.711Z,17.71
2022-08-22T11:39:48.729Z,17.67
2022-08-22T11:42:24.190Z,17.94
2022-08-22T11:45:00.915Z,17.99
2022-08-22T11:47:34.572Z,18.42
2022-08-22T11:50:13.323Z,18.74
2022-08-22T11:53:09.782Z,18.78
2022-08-22T11:55:43.412Z,18.48
2022-08-22T11:58:28.953Z,19.26
2022-08-22T12:01:03.798Z,19.85
2022-08-22T12:03:55.854Z,19.64
2022-08-22T12:06:59.325Z,19.82
2022-08-22T12:09:40.377Z,19.30
2022-08-22T12:12:22.103Z,19.54
2022-08-22T12:15:03.991Z,17.52
2022-08-22T12:18:10.285Z,16.77
2022-08-22T12:21:03.937Z,17.46
2022-08-22T12:24:06.000Z,16.89
2022-08-22T12:26:49.252Z,18.65
2022-08-22T12:29:34.054Z,18.25
2022-08-22T12:32:44.041Z,19.06
2022-08-22T12:35:30.002Z,18.70
2022-08-22T12:38:28.549Z,19.00
2022-08-22T12:41:28.445Z,19.67
2022-08-22T12:44:03.616Z,19.37
2022-08-22T12:46:46.745Z,19.45
2022-08-22T12:49:37.030Z,19.40
2022-08-22T12:52:21.571Z,19.02
2022-08-22T12:55:03.172Z,19.04
2022-08-22T12:57:40.740Z,20.83
2022-08-22T13:00:26.770Z,18.87
2022-08-22T13:02:56.908Z,19.18
2022-08-22T13:05:30.412Z,17.19
2022-08-22T13:08:06.658Z,16.05
2022-08-22T13:10:44.773Z,17.22
2022-08-22T13:13:17.347Z,16.45
2022-08-22T13:16:01.554Z,14.59
2022-08-22T13:18:39.398Z,15.19
2022-08-22T13:21:18.880Z,16.81
2022-08-22T13:23:54.508Z,16.45
2022-08-22T13:26:32.983Z,14.78
2022-08-22T13:29:25.068Z,14.18
2022-08-22T13:31:59.335Z,14.09
2022-08-22T13:34:39.560Z,13.42
2022-08-22T13:37:16.062Z,13.69
2022-08-22T13:39:47.118Z,13.58
2022-08-22T13:42:30.044Z,14.00
2022-08-22T13:45:05.565Z,15.12
2022-08-22T13:47:39.456Z,14.92
2022-08-22T13:50:14.009Z,15.17
2022-08-22T13:52:52.474Z,14.30
2022-08-22T13:55:29.533Z,14.32
2022-08-22T13:58:04.802Z,13.93
2022-08-22T14:01:10.698Z,13.92
2022-08-22T14:03:49.190Z,13.77
2022-08-22T14:06:35.470Z,14.27
2022-08-22T14:09:17.471Z,13.86
2022-08-22T14:12:11.826Z,14.06
2022-08-22T14:14:46.231Z,14.05
2022-08-22T14:17:18.799Z,13.68
2022-08-22T14:19:59.664Z,14.21
2022-08-22T14:22:35.100Z,13.32
2022-08-22T14:25:09.080Z,14.01
2022-08-22T14:27:49.155Z,13.45
2022-08-22T14:30:21.948Z,14.73
2022-08-22T14:32:56.209Z,14.39
2022-08-22T14:35:37.539Z,15.49
2022-08-22T14:38:27.278Z,14.67
2022-08-22T14:41:05.759Z,14.33
2022-08-22T14:43:51.288Z,14.31
2022-08-22T14:46:28.009Z,14.64
2022-08-22T14:49:28.884Z,14.79
2022-08-22T14:52:06.269Z,14.81
2022-08-22T14:54:34.960Z,13.90
2022-08-22T14:57:10.407Z,15.18
2022-08-22T14:59:50.010Z,14.01
2022-08-22T15:02:26.688Z,14.89
2022-08-22T15:04:56.813Z,14.17
2022-08-22T15:07:27.642Z,13.38
2022-08-22T15:10:01.214Z,13.51
2022-08-22T15:12:36.183Z,13.03
2022-08-22T15:15:11.557Z,14.36
2022-08-22T15:17:44.407Z,14.09
2022-08-22T15:20:27.980Z,14.47
2022-08-22T15:23:00.137Z,13.85
2022-08-22T15:25:32.683Z,13.41
2022-08-22T15:28:05.837Z,14.27
2022-08-22T15:30:38.880Z,15.01
2022-08-22T15:33:19.054Z,14.64
2022-08-22T15:35:48.662Z,13.66
2022-08-22T15:38:30.119Z,13.73
2022-08-22T15:41:32.207Z,13.09
2022-08-22T15:44:30.636Z,13.35
2022-08-22T15:47:10.836Z,13.30
2022-08-22T15:49:55.739Z,13.53
2022-08-22T15:52:28.759Z,13.49
2022-08-22T15:55:23.532Z,13.25
2022-08-22T15:58:06.118Z,13.81
2022-08-22T16:00:43.290Z,14.10
2022-08-22T16:03:24.581Z,14.21
2022-08-22T16:05:56.077Z,14.07
2022-08-22T16:08:29.575Z,15.71
2022-08-22T16:11:32.250Z,16.10
2022-08-22T16:14:21.380Z,16.56
2022-08-22T16:17:29.311Z,18.09
2022-08-22T16:20:31.839Z,17.82
2022-08-22T16:23:09.646Z,19.43
2022-08-22T16:26:07.966Z,19.28
2022-08-22T16:29:02.286Z,18.71
2022-08-22T16:31:33.064Z,19.28
2022-08-22T16:34:24.131Z,19.43
2022-08-22T16:37:43.840Z,18.41
2022-08-22T16:40:19.137Z,20.90
2022-08-22T16:42:52.770Z,20.82
2022-08-22T16:45:31.296Z,19.48
2022-08-22T16:48:00.006Z,21.13
2022-08-22T16:50:35.130Z,20.83
2022-08-22T16:53:11.310Z,20.75
2022-08-22T16:55:49.281Z,20.89
2022-08-22T16:59:00.849Z,20.77
2022-08-22T17:02:00.914Z,21.10
2022-08-22T17:04:39.672Z,21.86
2022-08-22T17:07:22.218Z,22.01
2022-08-22T17:10:07.922Z,21.49
2022-08-22T17:12:54.805Z,21.67
2022-08-22T17:15:32.074Z,21.44
2022-08-22T17:18:15.365Z,21.95
2022-08-22T17:20:50.463Z,22.01
2022-08-22T17:23:30.952Z,21.79
2022-08-22T17:26:07.427Z,22.46
2022-08-22T17:28:42.975Z,22.36
2022-08-22T17:31:18.423Z,23.11
2022-08-22T17:34:01.407Z,23.29
2022-08-22T17:36:43.440Z,22.81
2022-08-22T17:39:29.250Z,22.75
2022-08-22T17:42:20.854Z,24.20
2022-08-22T17:45:00.196Z,23.91
2022-08-22T17:47:33.448Z,23.52
2022-08-22T17:50:07.922Z,23.52
2022-08-22T17:52:42.766Z,24.60
2022-08-22T17:55:18.099Z,24.74
2022-08-22T17:57:49.976Z,24.56
2022-08-22T18:00:21.155Z,24.37
2022-08-22T18:02:55.077Z,24.00
2022-08-22T18:05:27.927Z,24.43
2022-08-22T18:08:07.077Z,25.50
2022-08-22T18:10:47.827Z,24.59
2022-08-22T18:13:20.835Z,25.08
2022-08-22T18:15:54.507Z,24.68
2022-08-22T18:18:31.359Z,25.22
2022-08-22T18:21:04.977Z,25.56
2022-08-22T18:23:40.215Z,25.43
2022-08-22T18:26:24.970Z,25.51
2022-08-22T18:29:00.576Z,25.80
2022-08-22T18:31:41.375Z,25.89
2022-08-22T18:34:19.905Z,26.19
2022-08-22T18:36:55.459Z,26.02
2022-08-22T18:39:27.386Z,26.25
2022-08-22T18:42:05.125Z,26.91
2022-08-22T18:44:38.120Z,25.90
2022-08-22T18:47:15.131Z,25.73
2022-08-22T18:49:54.069Z,26.43
2022-08-22T18:52:41.183Z,26.88
2022-08-22T18:55:28.423Z,26.93
2022-08-22T18:58:14.023Z,26.89
2022-08-22T19:01:02.111Z,26.66
2022-08-22T19:03:42.305Z,26.50
2022-08-22T19:06:37.869Z,26.85
2022-08-22T19:09:41.072Z,26.64
2022-08-22T19:12:25.115Z,26.80
2022-08-22T19:15:26.747Z,26.83
2022-08-22T19:18:15.138Z,27.23
2022-08-22T19:21:00.767Z,27.04
2022-08-22T19:23:51.030Z,26.90
2022-08-22T19:26:29.034Z,27.13
2022-08-22T19:28:59.964Z,27.64
2022-08-22T19:31:46.541Z,27.50
2022-08-22T19:34:35.250Z,28.04
2022-08-22T19:37:30.811Z,26.95
2022-08-22T19:40:07.962Z,27.76
2022-08-22T19:42:38.943Z,27.87
2022-08-22T19:45:21.418Z,27.53
2022-08-22T19:48:11.745Z,27.64
2022-08-22T19:50:42.386Z,28.76
2022-08-22T19:53:29.999Z,28.17
2022-08-22T19:56:11.482Z,28.74
2022-08-22T19:58:55.959Z,28.13
2022-08-22T20:01:40.476Z,29.32
2022-08-22T20:04:23.535Z,28.65
2022-08-22T20:07:01.981Z,27.94
2022-08-22T20:09:44.389Z,29.51
2022-08-22T20:12:21.473Z,29.46
2022-08-22T20:14:50.417Z,28.86
2022-08-22T20:17:42.752Z,29.07
2022-08-22T20:20:35.090Z,29.30
2022-08-22T20:23:09.290Z,28.76
2022-08-22T20:25:45.108Z,30.11
2022-08-22T20:28:34.119Z,29.74
2022-08-22T20:31:07.638Z,29.94
2022-08-22T20:33:39.908Z,30.39
2022-08-22T20:36:28.418Z,29.80
2022-08-22T20:39:03.079Z,30.70
2022-08-22T20:41:35.822Z,30.67
2022-08-22T20:44:12.589Z,31.07
2022-08-22T20:46:54.905Z,29.93
2022-08-22T20:49:30.775Z,31.11
2022-08-22T20:52:02.905Z,31.16
2022-08-22T20:54:33.964Z,31.02
2022-08-22T20:57:11.597Z,31.29
2022-08-22T20:59:41.994Z,31.01
2022-08-22T21:02:17.140Z,31.60
2022-08-22T21:04:52.945Z,31.92
2022-08-22T21:07:29.708Z,31.54
2022-08-22T21:10:22.293Z,32.70
2022-08-22T21:13:03.490Z,31.33
2022-08-22T21:15:33.503Z,32.20
2022-08-22T21:18:02.231Z,32.64
2022-08-22T21:20:34.500Z,32.44
2022-08-22T21:23:06.550Z,33.05
2022-08-22T21:25:50.061Z,32.93
2022-08-22T21:28:28.786Z,33.06
2022-08-22T21:30:57.409Z,32.78
2022-08-22T21:33:26.235Z,33.09
2022-08-22T21:36:00.575Z,33.83
2022-08-22T21:38:30.257Z,34.04
2022-08-22T21:41:03.269Z,34.13
2022-08-22T21:43:34.620Z,34.00
2022-08-22T21:46:03.337Z,33.97
2022-08-22T21:48:34.083Z,34.70
2022-08-22T21:51:39.065Z,33.86
2022-08-22T21:54:42.556Z,34.20
2022-08-22T21:57:20.307Z,34.48
2022-08-22T21:59:59.296Z,34.70
2022-08-22T22:02:38.091Z,35.03
2022-08-22T22:05:11.668Z,35.60
2022-08-22T22:07:42.561Z,34.75
2022-08-22T22:10:15.823Z,34.56
2022-08-22T22:12:46.351Z,35.15
2022-08-22T22:15:18.317Z,35.35
2022-08-22T22:17:46.398Z,34.94
2022-08-22T22:20:16.447Z,35.54
2022-08-22T22:22:46.084Z,36.16
2022-08-22T22:25:39.194Z,35.64
2022-08-22T22:28:09.849Z,36.48
2022-08-22T22:30:38.062Z,35.19
2022-08-22T22:33:06.445Z,36.62
2022-08-22T22:35:35.352Z,36.85
2022-08-22T22:38:03.292Z,36.74
2022-08-22T22:40:32.851Z,36.94
2022-08-22T22:43:00.794Z,36.75
2022-08-22T22:45:28.676Z,36.99
2022-08-22T22:47:57.100Z,36.52
2022-08-22T22:50:25.423Z,36.71
2022-08-22T22:52:54.137Z,37.16
2022-08-22T22:55:24.558Z,37.49
2022-08-22T22:57:59.193Z,36.69
2022-08-22T23:00:30.852Z,36.96
2022-08-22T23:03:00.878Z,36.35
2022-08-22T23:05:29.175Z,35.87
2022-08-22T23:07:57.765Z,36.69
2022-08-22T23:10:25.875Z,36.52
2022-08-22T23:12:55.242Z,35.39
2022-08-22T23:15:23.564Z,37.03
2022-08-22T23:17:51.549Z,36.55
2022-08-22T23:20:20.177Z,37.39
2022-08-22T23:22:48.653Z,37.21
2022-08-22T23:25:16.969Z,37.42
2022-08-22T23:27:45.053Z,37.47
2022-08-22T23:30:22.093Z,37.09
2022-08-22T23:32:50.298Z,36.76
2022-08-22T23:35:18.128Z,37.87
2022-08-22T23:37:46.083Z,36.46
2022-08-22T23:40:14.284Z,37.37
2022-08-22T23:42:42.223Z,36.36
2022-08-22T23:45:10.743Z,36.66
2022-08-22T23:47:40.030Z,37.06
2022-08-22T23:50:08.653Z,37.10
2022-08-22T23:52:36.671Z,37.14
2022-08-22T23:55:05.310Z,37.82
2022-08-22T23:57:33.345Z,36.54
